createdAt,value
2023-02-11T00:00:57.990Z,43.67
2023-02-11T00:03:23.978Z,41.45
2023-02-11T00:05:57.075Z,39.22
2023-02-11T00:08:22.787Z,46.40
2023-02-11T00:10:51.603Z,42.85
2023-02-11T00:13:17.437Z,41.92
2023-02-11T00:15:43.166Z,39.92
2023-02-11T00:18:08.901Z,43.28
2023-02-11T00:20:34.613Z,35.47
2023-02-11T00:23:00.340Z,39.28
2023-02-11T00:25:26.080Z,37.72
2023-02-11T00:27:51.782Z,37.60
2023-02-11T00:30:17.558Z,42.33
2023-02-11T00:32:43.332Z,41.28
2023-02-11T00:35:09.054Z,41.58
2023-02-11T00:37:35.856Z,35.33
2023-02-11T00:40:04.457Z,36.55
2023-02-11T00:42:32.425Z,40.55
2023-02-11T00:44:58.181Z,38.45
2023-02-11T00:47:23.921Z,35.90
2023-02-11T00:49:49.650Z,45.15
2023-02-11T00:52:15.414Z,36.97
2023-02-11T00:54:41.218Z,39.15
2023-02-11T00:57:06.927Z,41.55
2023-02-11T00:59:32.649Z,34.65
2023-02-11T01:01:58.374Z,32.50
2023-02-11T01:04:24.135Z,37.83
2023-02-11T01:06:49.865Z,37.15
2023-02-11T01:09:15.600Z,38.15
2023-02-11T01:11:41.308Z,38.90
2023-02-11T01:14:07.086Z,40.40
2023-02-11T01:16:32.827Z,38.35
2023-02-11T01:18:58.619Z,36.53
2023-02-11T01:21:24.899Z,38.13
2023-02-11T01:23:51.578Z,38.33
2023-02-11T01:26:17.311Z,32.90
2023-02-11T01:28:43.125Z,33.92
2023-02-11T01:31:08.935Z,36.72
2023-02-11T01:33:34.760Z,38.15
2023-02-11T01:36:04.263Z,38.55
2023-02-11T01:38:30.679Z,37.00
2023-02-11T01:40:58.245Z,39.10
2023-02-11T01:43:24.992Z,40.17
2023-02-11T01:45:53.791Z,31.10
2023-02-11T01:48:26.699Z,37.60
2023-02-11T01:50:54.279Z,40.08
2023-02-11T01:53:39.111Z,36.50
2023-02-11T01:56:23.656Z,35.88
2023-02-11T01:58:50.852Z,33.47
2023-02-11T02:01:18.684Z,37.20
2023-02-11T02:03:45.598Z,34.80
2023-02-11T02:06:14.435Z,34.97
2023-02-11T02:08:43.182Z,37.88
2023-02-11T02:11:08.910Z,34.65
2023-02-11T02:13:35.327Z,42.45
2023-02-11T02:16:09.817Z,34.80
2023-02-11T02:18:48.254Z,34.35
2023-02-11T02:21:32.796Z,36.60
2023-02-11T02:24:17.043Z,36.05
2023-02-11T02:26:51.735Z,40.83
2023-02-11T02:29:20.258Z,35.95
2023-02-11T02:31:54.114Z,39.80
2023-02-11T02:34:32.121Z,39.13
2023-02-11T02:37:07.507Z,40.25
2023-02-11T02:39:35.386Z,34.78
2023-02-11T02:42:01.314Z,43.10
2023-02-11T02:44:27.489Z,41.75
2023-02-11T02:46:53.321Z,36.92
2023-02-11T02:49:19.074Z,35.47
2023-02-11T02:51:58.308Z,41.35
2023-02-11T02:54:29.592Z,39.15
2023-02-11T02:57:18.034Z,41.83
2023-02-11T03:00:02.739Z,35.97
2023-02-11T03:02:34.247Z,36.67
2023-02-11T03:05:00.557Z,36.55
2023-02-11T03:07:37.366Z,42.10
2023-02-11T03:10:06.147Z,38.60
2023-02-11T03:12:33.081Z,37.83
2023-02-11T03:15:00.478Z,40.17
2023-02-11T03:17:27.924Z,40.15
2023-02-11T03:19:54.563Z,40.25
2023-02-11T03:22:24.121Z,41.88
2023-02-11T03:24:50.063Z,40.58
2023-02-11T03:27:26.995Z,43.08
2023-02-11T03:30:00.358Z,36.80
2023-02-11T03:32:35.622Z,42.92
2023-02-11T03:35:05.760Z,44.28
2023-02-11T03:37:40.281Z,45.45
2023-02-11T03:40:07.559Z,40.75
2023-02-11T03:42:40.325Z,41.17
2023-02-11T03:45:08.674Z,38.75
2023-02-11T03:47:35.770Z,42.38
2023-02-11T03:50:03.887Z,43.53
2023-02-11T03:52:30.085Z,43.08
2023-02-11T03:54:57.494Z,39.47
2023-02-11T03:57:23.533Z,43.28
2023-02-11T03:59:50.331Z,42.90
2023-02-11T04:02:16.207Z,37.53
2023-02-11T04:04:41.947Z,44.40
2023-02-11T04:07:08.490Z,47.33
2023-02-11T04:09:36.152Z,44.50
2023-02-11T04:12:02.165Z,45.25
2023-02-11T04:14:27.910Z,42.63
2023-02-11T04:16:53.623Z,45.10
2023-02-11T04:19:19.363Z,44.53
2023-02-11T04:21:45.080Z,50.65
2023-02-11T04:24:10.796Z,42.35
2023-02-11T04:26:36.478Z,43.10
2023-02-11T04:29:02.313Z,49.40
2023-02-11T04:31:28.180Z,44.97
2023-02-11T04:33:54.003Z,43.10
2023-02-11T04:36:19.708Z,44.20
2023-02-11T04:38:45.410Z,49.15
2023-02-11T04:41:11.128Z,44.17
2023-02-11T04:43:36.871Z,45.17
2023-02-11T04:46:02.633Z,47.40
2023-02-11T04:48:28.360Z,45.38
2023-02-11T04:50:54.088Z,50.70
2023-02-11T04:53:19.884Z,44.65
2023-02-11T04:55:48.462Z,50.45
2023-02-11T04:58:14.340Z,46.67
2023-02-11T05:00:40.112Z,50.92
2023-02-11T05:03:05.805Z,42.80
2023-02-11T05:05:31.558Z,46.55
2023-02-11T05:07:57.333Z,41.22
2023-02-11T05:10:23.106Z,44.60
2023-02-11T05:12:49.040Z,45.95
2023-02-11T05:15:15.026Z,45.10
2023-02-11T05:17:40.758Z,45.88
2023-02-11T05:20:06.659Z,48.70
2023-02-11T05:22:32.375Z,47.88
2023-02-11T05:24:58.088Z,50.25
2023-02-11T05:27:23.822Z,56.33
2023-02-11T05:29:49.557Z,47.97
2023-02-11T05:32:15.284Z,47.47
2023-02-11T05:34:41.017Z,52.25
2023-02-11T05:37:06.801Z,59.22
2023-02-11T05:39:32.529Z,50.35
2023-02-11T05:41:58.300Z,53.65
2023-02-11T05:44:24.005Z,50.78
2023-02-11T05:46:49.733Z,52.25
2023-02-11T05:49:16.075Z,45.55
2023-02-11T05:51:41.788Z,46.38
2023-02-11T05:54:07.519Z,52.30
2023-02-11T05:56:33.247Z,51.30
2023-02-11T05:58:59.286Z,52.60
2023-02-11T06:01:25.156Z,48.75
2023-02-11T06:03:50.954Z,54.95
2023-02-11T06:06:16.846Z,50.33
2023-02-11T06:08:42.750Z,53.55
2023-02-11T06:11:08.954Z,50.58
2023-02-11T06:13:35.162Z,54.90
2023-02-11T06:16:01.802Z,50.45
2023-02-11T06:18:28.298Z,48.85
2023-02-11T06:20:54.048Z,55.38
2023-02-11T06:23:20.120Z,51.33
2023-02-11T06:25:45.858Z,55.58
2023-02-11T06:28:11.669Z,54.45
2023-02-11T06:30:37.765Z,58.42
2023-02-11T06:33:03.878Z,51.05
2023-02-11T06:35:30.002Z,58.08
2023-02-11T06:37:55.737Z,53.10
2023-02-11T06:40:21.554Z,57.05
2023-02-11T06:42:47.300Z,53.92
2023-02-11T06:45:13.140Z,51.70
2023-02-11T06:47:39.788Z,55.55
2023-02-11T06:50:06.901Z,54.22
2023-02-11T06:52:33.083Z,58.70
2023-02-11T06:54:58.946Z,54.15
2023-02-11T06:57:24.720Z,55.72
2023-02-11T06:59:50.488Z,51.60
2023-02-11T07:02:18.468Z,53.85
2023-02-11T07:04:46.369Z,55.30
2023-02-11T07:07:12.088Z,56.38
2023-02-11T07:09:37.840Z,56.17
2023-02-11T07:12:03.697Z,60.03
2023-02-11T07:14:29.441Z,62.10
2023-02-11T07:16:55.161Z,48.90
2023-02-11T07:19:20.884Z,54.50
2023-02-11T07:21:47.989Z,54.28
2023-02-11T07:24:13.898Z,53.67
2023-02-11T07:26:40.120Z,51.47
2023-02-11T07:29:05.982Z,48.97
2023-02-11T07:31:32.707Z,61.42
2023-02-11T07:34:00.343Z,51.72
2023-02-11T07:36:27.156Z,55.08
2023-02-11T07:38:52.911Z,52.40
2023-02-11T07:41:20.327Z,49.53
2023-02-11T07:43:46.735Z,50.40
2023-02-11T07:46:19.882Z,54.35
2023-02-11T07:48:45.699Z,45.45
2023-02-11T07:51:12.966Z,49.15
2023-02-11T07:53:38.803Z,48.30
2023-02-11T07:56:05.404Z,52.35
2023-02-11T07:58:31.474Z,59.00
2023-02-11T08:01:01.645Z,52.70
2023-02-11T08:03:27.671Z,48.88
2023-02-11T08:05:53.504Z,46.88
2023-02-11T08:08:19.311Z,50.20
2023-02-11T08:10:45.130Z,51.40
2023-02-11T08:13:10.904Z,49.15
2023-02-11T08:15:36.696Z,50.70
2023-02-11T08:18:02.481Z,51.15
2023-02-11T08:20:28.416Z,45.80
2023-02-11T08:22:54.139Z,46.45
2023-02-11T08:25:19.973Z,42.97
2023-02-11T08:27:45.796Z,46.90
2023-02-11T08:30:11.839Z,49.70
2023-02-11T08:32:38.814Z,46.58
2023-02-11T08:35:07.186Z,47.58
2023-02-11T08:37:33.242Z,43.33
2023-02-11T08:39:58.990Z,42.05
2023-02-11T08:42:24.787Z,42.20
2023-02-11T08:44:50.572Z,45.05
2023-02-11T08:47:16.366Z,50.00
2023-02-11T08:49:42.167Z,46.50
2023-02-11T08:52:08.373Z,43.40
2023-02-11T08:54:34.094Z,42.90
2023-02-11T08:57:01.302Z,42.28
2023-02-11T08:59:27.146Z,46.72
2023-02-11T09:01:53.181Z,44.63
2023-02-11T09:04:19.028Z,44.22
2023-02-11T09:06:44.929Z,41.88
2023-02-11T09:09:13.049Z,41.72
2023-02-11T09:11:40.111Z,42.90
2023-02-11T09:14:06.260Z,45.53
2023-02-11T09:16:33.755Z,43.75
2023-02-11T09:19:00.322Z,41.35
2023-02-11T09:21:26.754Z,43.17
2023-02-11T09:23:52.565Z,43.30
2023-02-11T09:26:29.217Z,46.22
2023-02-11T09:28:55.586Z,38.90
2023-02-11T09:31:22.877Z,35.35
2023-02-11T09:33:49.944Z,43.08
2023-02-11T09:36:20.167Z,36.75
2023-02-11T09:38:46.311Z,41.10
2023-02-11T09:41:30.859Z,42.28
2023-02-11T09:43:57.835Z,36.80
2023-02-11T09:46:25.245Z,40.38
2023-02-11T09:48:52.547Z,38.05
2023-02-11T09:51:20.107Z,46.35
2023-02-11T09:53:49.930Z,40.58
2023-02-11T09:56:15.975Z,36.03
2023-02-11T09:58:43.152Z,38.83
2023-02-11T10:01:27.806Z,37.35
2023-02-11T10:04:03.628Z,38.92
2023-02-11T10:06:41.099Z,37.67
2023-02-11T10:09:15.823Z,39.08
2023-02-11T10:11:49.365Z,40.40
2023-02-11T10:14:15.156Z,34.78
2023-02-11T10:16:43.807Z,38.03
2023-02-11T10:19:16.071Z,35.85
2023-02-11T10:21:57.854Z,38.33
2023-02-11T10:24:23.713Z,38.75
2023-02-11T10:26:50.806Z,42.65
2023-02-11T10:29:31.460Z,33.78
2023-02-11T10:31:58.631Z,35.92
2023-02-11T10:34:24.399Z,35.80
2023-02-11T10:36:50.108Z,36.65
2023-02-11T10:39:19.990Z,35.60
2023-02-11T10:41:45.752Z,31.30
2023-02-11T10:44:31.361Z,39.67
2023-02-11T10:46:59.142Z,35.05
2023-02-11T10:49:41.962Z,43.10
2023-02-11T10:52:13.928Z,34.88
2023-02-11T10:54:39.936Z,33.33
2023-02-11T10:57:06.839Z,43.55
2023-02-11T10:59:37.057Z,40.55
2023-02-11T11:02:18.472Z,38.28
2023-02-11T11:04:44.809Z,37.13
2023-02-11T11:07:21.366Z,34.00
2023-02-11T11:09:50.055Z,41.50
2023-02-11T11:12:34.614Z,35.65
2023-02-11T11:15:03.580Z,33.92
2023-02-11T11:17:29.619Z,35.40
2023-02-11T11:20:14.599Z,32.88
2023-02-11T11:22:41.148Z,39.53
2023-02-11T11:25:20.176Z,33.75
2023-02-11T11:27:50.306Z,39.63
2023-02-11T11:30:16.567Z,38.83
2023-02-11T11:32:42.990Z,38.78
2023-02-11T11:35:21.134Z,31.25
2023-02-11T11:37:51.823Z,36.83
2023-02-11T11:40:21.274Z,36.55
2023-02-11T11:43:01.054Z,37.05
2023-02-11T11:45:26.774Z,32.67
2023-02-11T11:47:58.044Z,34.92
2023-02-11T11:50:30.526Z,31.50
2023-02-11T11:53:00.523Z,35.80
2023-02-11T11:55:39.408Z,40.35
2023-02-11T11:58:09.848Z,36.38
2023-02-11T12:00:40.557Z,36.17
2023-02-11T12:05:57.195Z,33.42
2023-02-11T12:11:02.514Z,27.52
2023-02-11T12:13:29.243Z,27.52
2023-02-11T12:16:00.786Z,34.70
2023-02-11T12:18:39.330Z,25.98
2023-02-11T12:21:18.140Z,28.13
2023-02-11T12:23:52.896Z,28.73
2023-02-11T12:26:19.828Z,29.17
2023-02-11T12:29:04.565Z,27.38
2023-02-11T12:31:49.152Z,28.95
2023-02-11T12:34:30.014Z,23.98
2023-02-11T12:37:19.435Z,23.52
2023-02-11T12:40:04.164Z,21.80
2023-02-11T12:42:48.408Z,20.30
2023-02-11T12:45:21.800Z,22.25
2023-02-11T12:48:06.595Z,26.38
2023-02-11T12:50:38.710Z,22.13
2023-02-11T12:53:23.464Z,23.52
2023-02-11T12:55:51.721Z,20.70
2023-02-11T12:58:29.645Z,22.33
2023-02-11T13:01:05.873Z,23.48
2023-02-11T13:03:38.630Z,20.88
2023-02-11T13:06:08.632Z,19.23
2023-02-11T13:08:45.824Z,19.58
2023-02-11T13:11:15.628Z,19.38
2023-02-11T13:13:44.222Z,19.70
2023-02-11T13:16:22.110Z,26.35
2023-02-11T13:19:13.585Z,21.00
2023-02-11T13:21:58.545Z,24.08
2023-02-11T13:24:24.508Z,20.10
2023-02-11T13:26:50.310Z,24.02
2023-02-11T13:29:23.500Z,18.38
2023-02-11T13:31:56.714Z,20.80
2023-02-11T13:34:49.437Z,24.02
2023-02-11T13:37:28.334Z,19.88
2023-02-11T13:40:06.308Z,24.65
2023-02-11T13:42:33.610Z,19.30
2023-02-11T13:44:59.998Z,21.02
2023-02-11T13:47:31.602Z,20.08
2023-02-11T13:49:59.042Z,20.67
2023-02-11T13:52:28.466Z,20.00
2023-02-11T13:54:56.023Z,21.35
2023-02-11T13:57:27.269Z,22.55
2023-02-11T14:00:00.907Z,19.63
2023-02-11T14:02:48.530Z,19.23
2023-02-11T14:05:35.972Z,19.17
2023-02-11T14:08:29.657Z,18.30
2023-02-11T14:10:55.426Z,18.90
2023-02-11T14:13:30.374Z,21.02
2023-02-11T14:16:05.165Z,16.92
2023-02-11T14:18:37.191Z,20.67
2023-02-11T14:21:13.936Z,16.52
2023-02-11T14:23:40.650Z,17.17
2023-02-11T14:26:09.262Z,19.17
2023-02-11T14:28:35.518Z,17.33
2023-02-11T14:31:09.736Z,24.30
2023-02-11T14:33:47.501Z,14.25
2023-02-11T14:36:28.905Z,17.77
2023-02-11T14:39:14.173Z,16.98
2023-02-11T14:41:43.825Z,16.25
2023-02-11T14:44:14.844Z,17.70
2023-02-11T14:46:43.564Z,14.75
2023-02-11T14:49:16.121Z,14.85
2023-02-11T14:51:42.037Z,15.90
2023-02-11T14:54:16.590Z,16.17
2023-02-11T14:56:43.752Z,17.85
2023-02-11T14:59:15.801Z,15.52
2023-02-11T15:01:45.162Z,16.23
2023-02-11T15:04:25.053Z,21.70
2023-02-11T15:06:50.867Z,17.45
2023-02-11T15:09:23.581Z,18.45
2023-02-11T15:11:50.640Z,18.52
2023-02-11T15:14:23.395Z,14.68
2023-02-11T15:16:50.466Z,15.10
2023-02-11T15:19:28.858Z,14.52
2023-02-11T15:21:56.223Z,20.42
2023-02-11T15:24:25.253Z,17.48
2023-02-11T15:27:16.388Z,14.48
2023-02-11T15:29:43.724Z,12.10
2023-02-11T15:32:09.678Z,13.70
2023-02-11T15:34:43.592Z,14.93
2023-02-11T15:37:12.618Z,17.40
2023-02-11T15:39:42.559Z,15.38
2023-02-11T15:42:18.842Z,16.77
2023-02-11T15:44:44.836Z,17.67
2023-02-11T15:47:11.406Z,16.88
2023-02-11T15:49:37.701Z,16.60
2023-02-11T15:52:03.818Z,15.93
2023-02-11T15:54:31.561Z,13.82
2023-02-11T15:57:06.345Z,17.73
2023-02-11T15:59:40.211Z,17.35
2023-02-11T16:02:08.563Z,18.02
2023-02-11T16:04:51.361Z,18.13
2023-02-11T16:07:35.861Z,17.80
2023-02-11T16:10:01.839Z,17.20
2023-02-11T16:12:28.831Z,16.98
2023-02-11T16:14:58.508Z,17.10
2023-02-11T16:17:26.887Z,18.42
2023-02-11T16:19:53.158Z,17.38
2023-02-11T16:22:26.895Z,15.73
2023-02-11T16:24:54.939Z,16.60
2023-02-11T16:27:25.607Z,16.20
2023-02-11T16:29:51.791Z,16.75
2023-02-11T16:32:19.437Z,18.27
2023-02-11T16:34:48.407Z,15.85
2023-02-11T16:37:14.386Z,15.23
2023-02-11T16:39:40.454Z,21.58
2023-02-11T16:42:07.614Z,17.95
2023-02-11T16:44:34.610Z,16.27
2023-02-11T16:47:02.643Z,14.80
2023-02-11T16:49:30.743Z,16.67
2023-02-11T16:52:00.570Z,14.57
2023-02-11T16:54:27.173Z,15.03
2023-02-11T16:56:52.908Z,14.52
2023-02-11T16:59:18.781Z,15.25
2023-02-11T17:01:45.174Z,14.88
2023-02-11T17:04:16.082Z,16.55
2023-02-11T17:06:42.503Z,15.77
2023-02-11T17:09:10.336Z,14.32
2023-02-11T17:11:36.345Z,18.45
2023-02-11T17:14:02.187Z,14.43
2023-02-11T17:16:29.240Z,11.93
2023-02-11T17:18:55.097Z,15.55
2023-02-11T17:21:20.887Z,12.25
2023-02-11T17:23:46.718Z,14.00
2023-02-11T17:26:12.725Z,21.45
2023-02-11T17:28:38.614Z,12.95
2023-02-11T17:31:08.835Z,13.63
2023-02-11T17:33:36.250Z,10.40
2023-02-11T17:36:06.195Z,11.50
2023-02-11T17:38:32.033Z,13.53
2023-02-11T17:40:58.306Z,14.27
2023-02-11T17:43:24.462Z,11.70
2023-02-11T17:45:50.562Z,13.90
2023-02-11T17:48:16.546Z,14.65
2023-02-11T17:50:42.580Z,11.75
2023-02-11T17:53:08.308Z,11.88
2023-02-11T17:55:34.687Z,12.93
2023-02-11T17:58:01.068Z,10.82
2023-02-11T18:00:27.794Z,11.77
2023-02-11T18:02:56.476Z,11.68
2023-02-11T18:05:25.998Z,14.10
2023-02-11T18:07:51.752Z,11.18
2023-02-11T18:10:17.711Z,11.45
2023-02-11T18:12:43.583Z,13.10
2023-02-11T18:15:09.579Z,12.45
2023-02-11T18:17:35.326Z,12.32
2023-02-11T18:20:03.343Z,11.93
2023-02-11T18:22:33.102Z,9.90
2023-02-11T18:25:00.047Z,12.77
2023-02-11T18:27:27.425Z,10.77
2023-02-11T18:29:53.414Z,10.30
2023-02-11T18:32:19.263Z,12.20
2023-02-11T18:34:54.450Z,13.48
2023-02-11T18:37:20.462Z,12.02
2023-02-11T18:39:46.325Z,15.18
2023-02-11T18:42:12.098Z,13.32
2023-02-11T18:44:37.851Z,12.00
2023-02-11T18:47:03.854Z,10.25
2023-02-11T18:49:29.692Z,10.77
2023-02-11T18:51:58.011Z,9.07
2023-02-11T18:54:23.923Z,11.80
2023-02-11T18:56:49.815Z,11.52
2023-02-11T18:59:15.626Z,9.23
2023-02-11T19:01:42.793Z,10.30
2023-02-11T19:04:08.639Z,11.60
2023-02-11T19:06:41.771Z,9.80
2023-02-11T19:09:09.248Z,10.85
2023-02-11T19:11:49.103Z,9.30
2023-02-11T19:14:22.469Z,9.43
2023-02-11T19:16:50.112Z,10.80
2023-02-11T19:19:16.851Z,9.95
2023-02-11T19:21:43.386Z,10.45
2023-02-11T19:24:09.585Z,10.18
2023-02-11T19:26:36.445Z,10.27
2023-02-11T19:29:02.709Z,10.45
2023-02-11T19:31:31.449Z,10.77
2023-02-11T19:33:59.261Z,11.27
2023-02-11T19:36:25.214Z,10.85
2023-02-11T19:38:51.025Z,10.68
2023-02-11T19:41:21.344Z,13.25
2023-02-11T19:43:53.376Z,12.23
2023-02-11T19:46:20.569Z,10.52
2023-02-11T19:48:46.829Z,10.77
2023-02-11T19:51:13.416Z,9.85
2023-02-11T19:53:39.803Z,9.27
2023-02-11T19:56:07.168Z,9.45
2023-02-11T19:58:33.699Z,12.68
2023-02-11T20:01:05.707Z,11.93
2023-02-11T20:03:31.669Z,9.82
2023-02-11T20:06:08.424Z,11.90
2023-02-11T20:08:34.246Z,11.30
2023-02-11T20:11:11.016Z,10.43
2023-02-11T20:13:37.568Z,10.88
2023-02-11T20:16:04.868Z,12.48
2023-02-11T20:18:30.674Z,11.38
2023-02-11T20:20:56.543Z,10.60
2023-02-11T20:23:22.306Z,11.48
2023-02-11T20:25:48.239Z,10.27
2023-02-11T20:28:14.150Z,9.63
2023-02-11T20:30:40.089Z,12.88
2023-02-11T20:33:05.815Z,12.20
2023-02-11T20:35:31.696Z,11.43
2023-02-11T20:37:57.444Z,11.93
2023-02-11T20:40:23.252Z,14.43
2023-02-11T20:42:49.109Z,12.32
2023-02-11T20:45:15.027Z,11.55
2023-02-11T20:47:41.856Z,10.27
2023-02-11T20:50:08.236Z,8.45
2023-02-11T20:52:33.938Z,11.15
2023-02-11T20:55:00.998Z,13.27
2023-02-11T20:57:27.865Z,13.18
2023-02-11T20:59:53.779Z,12.07
2023-02-11T21:02:19.755Z,12.50
2023-02-11T21:04:48.500Z,11.23
2023-02-11T21:07:14.223Z,13.27
2023-02-11T21:09:40.012Z,13.50
2023-02-11T21:12:06.861Z,12.10
2023-02-11T21:14:33.387Z,13.65
2023-02-11T21:16:59.419Z,10.38
2023-02-11T21:19:25.618Z,11.90
2023-02-11T21:21:54.298Z,9.75
2023-02-11T21:24:20.324Z,9.45
2023-02-11T21:26:46.122Z,13.48
2023-02-11T21:29:11.903Z,15.20
2023-02-11T21:31:38.103Z,10.57
2023-02-11T21:34:04.115Z,11.00
2023-02-11T21:36:39.138Z,10.98
2023-02-11T21:39:06.606Z,9.02
2023-02-11T21:41:32.405Z,10.93
2023-02-11T21:43:58.489Z,15.13
2023-02-11T21:46:24.356Z,12.98
2023-02-11T21:48:50.378Z,10.05
2023-02-11T21:51:17.362Z,9.38
2023-02-11T21:53:43.135Z,10.27
2023-02-11T21:56:15.349Z,11.15
2023-02-11T21:58:41.552Z,8.15
2023-02-11T22:01:15.013Z,14.00
2023-02-11T22:03:41.169Z,9.98
2023-02-11T22:06:07.904Z,14.60
2023-02-11T22:08:33.624Z,13.20
2023-02-11T22:11:03.726Z,15.13
2023-02-11T22:13:29.632Z,9.90
2023-02-11T22:15:59.307Z,10.80
2023-02-11T22:18:25.280Z,13.40
2023-02-11T22:21:17.389Z,9.25
2023-02-11T22:23:43.323Z,14.02
2023-02-11T22:26:10.856Z,12.93
2023-02-11T22:28:38.398Z,9.68
2023-02-11T22:31:04.641Z,10.70
2023-02-11T22:33:30.447Z,8.88
2023-02-11T22:36:03.985Z,13.80
2023-02-11T22:38:30.996Z,12.23
2023-02-11T22:40:57.643Z,13.88
2023-02-11T22:43:23.737Z,10.73
2023-02-11T22:45:50.276Z,15.20
2023-02-11T22:48:16.209Z,11.20
2023-02-11T22:50:42.000Z,13.75
2023-02-11T22:53:08.036Z,12.18
2023-02-11T22:55:37.766Z,13.30
2023-02-11T22:58:03.799Z,15.95
2023-02-11T23:00:30.808Z,11.38
2023-02-11T23:02:56.664Z,8.98
2023-02-11T23:05:22.637Z,11.82
2023-02-11T23:07:48.651Z,12.25
2023-02-11T23:10:14.463Z,15.10
2023-02-11T23:12:40.210Z,9.27
2023-02-11T23:15:06.896Z,14.07
2023-02-11T23:17:32.632Z,12.25
2023-02-11T23:19:58.318Z,11.25
2023-02-11T23:22:24.121Z,9.43
2023-02-11T23:24:49.967Z,14.50
2023-02-11T23:27:15.716Z,10.07
2023-02-11T23:29:41.611Z,10.57
2023-02-11T23:32:07.566Z,15.07
2023-02-11T23:34:33.305Z,14.90
2023-02-11T23:36:59.143Z,13.43
2023-02-11T23:39:25.088Z,13.75
2023-02-11T23:41:51.828Z,15.07
2023-02-11T23:44:18.024Z,9.85
2023-02-11T23:46:43.791Z,12.23
2023-02-11T23:49:09.574Z,12.60
2023-02-11T23:51:35.306Z,9.20
2023-02-11T23:54:01.810Z,11.27
2023-02-11T23:56:27.798Z,11.07
2023-02-11T23:58:54.836Z,10.13
